sensor_id;sensor_type;location;lat;lon;timestamp;P1;durP1;ratioP1;P2;durP2;ratioP2
1076;SDS011;64114;48.726;9.370;2022-11-18T00:00:12;0.73;;;0.63;;
1076;SDS011;64114;48.726;9.370;2022-11-18T00:02:41;0.90;;;0.70;;
1076;SDS011;64114;48.726;9.370;2022-11-18T00:05:09;1.40;;;1.03;;
1076;SDS011;64114;48.726;9.370;2022-11-18T00:07:38;3.13;;;1.23;;
1076;SDS011;64114;48.726;9.370;2022-11-18T00:10:06;1.47;;;0.97;;
1076;SDS011;64114;48.726;9.370;2022-11-18T00:12:35;1.23;;;0.90;;
1076;SDS011;64114;48.726;9.370;2022-11-18T00:15:21;1.27;;;1.07;;
1076;SDS011;64114;48.726;9.370;2022-11-18T00:17:56;1.23;;;0.80;;
1076;SDS011;64114;48.726;9.370;2022-11-18T00:20:25;2.27;;;1.53;;
1076;SDS011;64114;48.726;9.370;2022-11-18T00:22:54;1.90;;;1.20;;
1076;SDS011;64114;48.726;9.370;2022-11-18T00:25:24;1.80;;;1.27;;
1076;SDS011;64114;48.726;9.370;2022-11-18T00:27:57;1.90;;;1.20;;
1076;SDS011;64114;48.726;9.370;2022-11-18T00:30:25;1.80;;;1.00;;
1076;SDS011;64114;48.726;9.370;2022-11-18T00:32:53;1.20;;;1.10;;
1076;SDS011;64114;48.726;9.370;2022-11-18T00:35:22;1.50;;;1.30;;
1076;SDS011;64114;48.726;9.370;2022-11-18T00:37:51;1.17;;;0.73;;
1076;SDS011;64114;48.726;9.370;2022-11-18T00:40:20;1.07;;;1.00;;
1076;SDS011;64114;48.726;9.370;2022-11-18T00:42:48;1.30;;;0.80;;
1076;SDS011;64114;48.726;9.370;2022-11-18T00:45:18;1.53;;;0.87;;
1076;SDS011;64114;48.726;9.370;2022-11-18T00:47:47;1.07;;;1.00;;
1076;SDS011;64114;48.726;9.370;2022-11-18T00:50:15;0.83;;;0.50;;
1076;SDS011;64114;48.726;9.370;2022-11-18T00:52:43;1.03;;;0.50;;
1076;SDS011;64114;48.726;9.370;2022-11-18T00:55:11;0.50;;;0.50;;
1076;SDS011;64114;48.726;9.370;2022-11-18T00:57:40;0.83;;;0.63;;
1076;SDS011;64114;48.726;9.370;2022-11-18T01:00:08;0.97;;;0.87;;
1076;SDS011;64114;48.726;9.370;2022-11-18T01:02:37;3.10;;;2.30;;
1076;SDS011;64114;48.726;9.370;2022-11-18T01:05:05;1.63;;;1.60;;
1076;SDS011;64114;48.726;9.370;2022-11-18T01:07:34;0.90;;;0.70;;
1076;SDS011;64114;48.726;9.370;2022-11-18T01:10:02;1.17;;;0.70;;
1076;SDS011;64114;48.726;9.370;2022-11-18T01:12:30;1.40;;;0.80;;
1076;SDS011;64114;48.726;9.370;2022-11-18T01:15:21;1.53;;;1.27;;
1076;SDS011;64114;48.726;9.370;2022-11-18T01:17:49;1.30;;;1.20;;
1076;SDS011;64114;48.726;9.370;2022-11-18T01:20:16;1.53;;;1.00;;
1076;SDS011;64114;48.726;9.370;2022-11-18T01:22:45;1.93;;;1.30;;
1076;SDS011;64114;48.726;9.370;2022-11-18T01:25:13;2.00;;;1.53;;
1076;SDS011;64114;48.726;9.370;2022-11-18T01:27:41;3.13;;;1.40;;
1076;SDS011;64114;48.726;9.370;2022-11-18T01:30:09;2.10;;;1.40;;
1076;SDS011;64114;48.726;9.370;2022-11-18T01:32:39;3.17;;;1.17;;
1076;SDS011;64114;48.726;9.370;2022-11-18T01:35:07;1.67;;;1.47;;
1076;SDS011;64114;48.726;9.370;2022-11-18T01:37:37;1.33;;;1.10;;
1076;SDS011;64114;48.726;9.370;2022-11-18T01:40:06;4.50;;;0.90;;
1076;SDS011;64114;48.726;9.370;2022-11-18T01:42:35;2.00;;;1.30;;
1076;SDS011;64114;48.726;9.370;2022-11-18T01:45:05;5.60;;;1.20;;
1076;SDS011;64114;48.726;9.370;2022-11-18T01:47:46;2.40;;;1.57;;
1076;SDS011;64114;48.726;9.370;2022-11-18T01:50:19;1.83;;;1.63;;
1076;SDS011;64114;48.726;9.370;2022-11-18T01:52:48;1.43;;;1.10;;
1076;SDS011;64114;48.726;9.370;2022-11-18T01:55:18;2.17;;;1.40;;
1076;SDS011;64114;48.726;9.370;2022-11-18T01:57:50;2.40;;;1.63;;
1076;SDS011;64114;48.726;9.370;2022-11-18T02:00:24;2.20;;;1.10;;
1076;SDS011;64114;48.726;9.370;2022-11-18T02:02:54;1.40;;;1.23;;
1076;SDS011;64114;48.726;9.370;2022-11-18T02:05:23;5.03;;;1.60;;
1076;SDS011;64114;48.726;9.370;2022-11-18T02:07:52;1.13;;;1.13;;
1076;SDS011;64114;48.726;9.370;2022-11-18T02:10:21;2.40;;;1.20;;
1076;SDS011;64114;48.726;9.370;2022-11-18T02:12:51;1.83;;;1.40;;
1076;SDS011;64114;48.726;9.370;2022-11-18T02:15:24;0.90;;;0.80;;
1076;SDS011;64114;48.726;9.370;2022-11-18T02:18:04;0.50;;;0.43;;
1076;SDS011;64114;48.726;9.370;2022-11-18T02:20:40;1.97;;;0.70;;
1076;SDS011;64114;48.726;9.370;2022-11-18T02:26:26;0.63;;;0.50;;
1076;SDS011;64114;48.726;9.370;2022-11-18T02:29:12;3.00;;;0.60;;
1076;SDS011;64114;48.726;9.370;2022-11-18T02:31:46;0.83;;;0.60;;
1076;SDS011;64114;48.726;9.370;2022-11-18T02:34:23;1.17;;;0.50;;
1076;SDS011;64114;48.726;9.370;2022-11-18T02:37:00;1.17;;;0.63;;
1076;SDS011;64114;48.726;9.370;2022-11-18T02:39:33;0.83;;;0.60;;
1076;SDS011;64114;48.726;9.370;2022-11-18T02:42:06;0.83;;;0.63;;
1076;SDS011;64114;48.726;9.370;2022-11-18T02:44:41;1.53;;;0.50;;
1076;SDS011;64114;48.726;9.370;2022-11-18T02:47:17;0.40;;;0.40;;
1076;SDS011;64114;48.726;9.370;2022-11-18T02:49:48;0.50;;;0.40;;
1076;SDS011;64114;48.726;9.370;2022-11-18T02:52:20;1.03;;;0.70;;
1076;SDS011;64114;48.726;9.370;2022-11-18T02:54:51;3.40;;;0.50;;
1076;SDS011;64114;48.726;9.370;2022-11-18T02:57:22;0.40;;;0.30;;
1076;SDS011;64114;48.726;9.370;2022-11-18T02:59:55;0.93;;;0.60;;
1076;SDS011;64114;48.726;9.370;2022-11-18T03:02:23;0.60;;;0.50;;
1076;SDS011;64114;48.726;9.370;2022-11-18T03:04:52;1.73;;;0.60;;
1076;SDS011;64114;48.726;9.370;2022-11-18T03:07:24;0.80;;;0.60;;
1076;SDS011;64114;48.726;9.370;2022-11-18T03:09:56;0.63;;;0.57;;
1076;SDS011;64114;48.726;9.370;2022-11-18T03:12:29;0.83;;;0.50;;
1076;SDS011;64114;48.726;9.370;2022-11-18T03:15:08;0.77;;;0.50;;
1076;SDS011;64114;48.726;9.370;2022-11-18T03:17:44;0.77;;;0.57;;
1076;SDS011;64114;48.726;9.370;2022-11-18T03:20:22;0.70;;;0.43;;
1076;SDS011;64114;48.726;9.370;2022-11-18T03:22:54;0.50;;;0.30;;
1076;SDS011;64114;48.726;9.370;2022-11-18T03:25:28;0.60;;;0.50;;
1076;SDS011;64114;48.726;9.370;2022-11-18T03:28:05;1.00;;;0.47;;
1076;SDS011;64114;48.726;9.370;2022-11-18T03:30:40;0.80;;;0.50;;
1076;SDS011;64114;48.726;9.370;2022-11-18T03:33:14;1.40;;;0.53;;
1076;SDS011;64114;48.726;9.370;2022-11-18T03:35:48;1.10;;;0.60;;
1076;SDS011;64114;48.726;9.370;2022-11-18T03:38:19;1.27;;;0.50;;
1076;SDS011;64114;48.726;9.370;2022-11-18T03:40:52;0.80;;;0.40;;
1076;SDS011;64114;48.726;9.370;2022-11-18T03:43:24;0.90;;;0.80;;
1076;SDS011;64114;48.726;9.370;2022-11-18T03:45:59;0.77;;;0.60;;
1076;SDS011;64114;48.726;9.370;2022-11-18T03:48:33;0.60;;;0.60;;
1076;SDS011;64114;48.726;9.370;2022-11-18T03:51:05;0.70;;;0.50;;
1076;SDS011;64114;48.726;9.370;2022-11-18T03:53:36;1.27;;;0.60;;
1076;SDS011;64114;48.726;9.370;2022-11-18T03:56:07;1.40;;;0.70;;
1076;SDS011;64114;48.726;9.370;2022-11-18T03:58:46;2.10;;;0.57;;
1076;SDS011;64114;48.726;9.370;2022-11-18T04:01:20;0.87;;;0.80;;
1076;SDS011;64114;48.726;9.370;2022-11-18T04:03:54;0.80;;;0.60;;
1076;SDS011;64114;48.726;9.370;2022-11-18T04:06:23;0.70;;;0.50;;
1076;SDS011;64114;48.726;9.370;2022-11-18T04:08:58;0.80;;;0.60;;
1076;SDS011;64114;48.726;9.370;2022-11-18T04:11:29;0.50;;;0.40;;
1076;SDS011;64114;48.726;9.370;2022-11-18T04:14:19;1.33;;;0.70;;
1076;SDS011;64114;48.726;9.370;2022-11-18T04:16:50;1.70;;;0.50;;
1076;SDS011;64114;48.726;9.370;2022-11-18T04:19:19;1.40;;;0.63;;
1076;SDS011;64114;48.726;9.370;2022-11-18T04:21:49;0.40;;;0.40;;
1076;SDS011;64114;48.726;9.370;2022-11-18T04:24:24;1.10;;;0.80;;
1076;SDS011;64114;48.726;9.370;2022-11-18T04:26:52;1.00;;;0.60;;
1076;SDS011;64114;48.726;9.370;2022-11-18T04:29:21;1.00;;;0.40;;
1076;SDS011;64114;48.726;9.370;2022-11-18T04:31:51;2.20;;;0.50;;
1076;SDS011;64114;48.726;9.370;2022-11-18T04:34:18;0.60;;;0.50;;
1076;SDS011;64114;48.726;9.370;2022-11-18T04:36:46;0.93;;;0.47;;
1076;SDS011;64114;48.726;9.370;2022-11-18T04:39:14;0.73;;;0.50;;
1076;SDS011;64114;48.726;9.370;2022-11-18T04:41:44;0.70;;;0.70;;
1076;SDS011;64114;48.726;9.370;2022-11-18T04:44:24;0.67;;;0.60;;
1076;SDS011;64114;48.726;9.370;2022-11-18T04:46:55;0.70;;;0.60;;
1076;SDS011;64114;48.726;9.370;2022-11-18T04:49:24;1.00;;;0.60;;
1076;SDS011;64114;48.726;9.370;2022-11-18T04:51:53;0.87;;;0.73;;
1076;SDS011;64114;48.726;9.370;2022-11-18T04:54:22;1.23;;;0.80;;
1076;SDS011;64114;48.726;9.370;2022-11-18T04:56:51;3.13;;;0.80;;
1076;SDS011;64114;48.726;9.370;2022-11-18T04:59:21;0.97;;;0.60;;
1076;SDS011;64114;48.726;9.370;2022-11-18T05:01:51;1.00;;;0.70;;
1076;SDS011;64114;48.726;9.370;2022-11-18T05:04:22;1.23;;;0.67;;
1076;SDS011;64114;48.726;9.370;2022-11-18T05:06:51;1.37;;;0.77;;
1076;SDS011;64114;48.726;9.370;2022-11-18T05:09:20;1.20;;;0.90;;
1076;SDS011;64114;48.726;9.370;2022-11-18T05:11:57;3.03;;;1.40;;
1076;SDS011;64114;48.726;9.370;2022-11-18T05:14:43;4.30;;;1.30;;
1076;SDS011;64114;48.726;9.370;2022-11-18T05:17:16;1.60;;;1.20;;
1076;SDS011;64114;48.726;9.370;2022-11-18T05:19:46;2.97;;;1.97;;
1076;SDS011;64114;48.726;9.370;2022-11-18T05:22:14;2.37;;;1.53;;
1076;SDS011;64114;48.726;9.370;2022-11-18T05:24:42;1.03;;;0.50;;
1076;SDS011;64114;48.726;9.370;2022-11-18T05:27:11;0.83;;;0.43;;
1076;SDS011;64114;48.726;9.370;2022-11-18T05:29:42;2.10;;;0.43;;
1076;SDS011;64114;48.726;9.370;2022-11-18T05:32:11;0.73;;;0.53;;
1076;SDS011;64114;48.726;9.370;2022-11-18T05:34:39;1.27;;;0.50;;
1076;SDS011;64114;48.726;9.370;2022-11-18T05:37:09;0.97;;;0.90;;
1076;SDS011;64114;48.726;9.370;2022-11-18T05:39:37;1.00;;;0.67;;
1076;SDS011;64114;48.726;9.370;2022-11-18T05:42:06;2.50;;;0.90;;
1076;SDS011;64114;48.726;9.370;2022-11-18T05:44:51;2.30;;;1.10;;
1076;SDS011;64114;48.726;9.370;2022-11-18T05:47:24;1.20;;;0.80;;
1076;SDS011;64114;48.726;9.370;2022-11-18T05:49:52;0.70;;;0.60;;
1076;SDS011;64114;48.726;9.370;2022-11-18T05:52:22;1.67;;;0.70;;
1076;SDS011;64114;48.726;9.370;2022-11-18T05:54:50;0.73;;;0.67;;
1076;SDS011;64114;48.726;9.370;2022-11-18T05:57:18;1.20;;;0.53;;
1076;SDS011;64114;48.726;9.370;2022-11-18T05:59:46;0.63;;;0.60;;
1076;SDS011;64114;48.726;9.370;2022-11-18T06:02:14;0.70;;;0.60;;
1076;SDS011;64114;48.726;9.370;2022-11-18T06:04:45;1.23;;;0.70;;
1076;SDS011;64114;48.726;9.370;2022-11-18T06:07:21;1.00;;;0.90;;
1076;SDS011;64114;48.726;9.370;2022-11-18T06:09:54;0.90;;;0.70;;
1076;SDS011;64114;48.726;9.370;2022-11-18T06:12:32;0.70;;;0.57;;
1076;SDS011;64114;48.726;9.370;2022-11-18T06:15:04;0.87;;;0.50;;
1076;SDS011;64114;48.726;9.370;2022-11-18T06:17:38;1.53;;;0.50;;
1076;SDS011;64114;48.726;9.370;2022-11-18T06:20:11;1.00;;;0.60;;
1076;SDS011;64114;48.726;9.370;2022-11-18T06:22:41;0.60;;;0.50;;
1076;SDS011;64114;48.726;9.370;2022-11-18T06:25:12;2.90;;;0.80;;
1076;SDS011;64114;48.726;9.370;2022-11-18T06:27:41;4.00;;;1.00;;
1076;SDS011;64114;48.726;9.370;2022-11-18T06:30:11;1.10;;;0.70;;
1076;SDS011;64114;48.726;9.370;2022-11-18T06:32:39;1.33;;;0.60;;
1076;SDS011;64114;48.726;9.370;2022-11-18T06:35:08;0.73;;;0.50;;
1076;SDS011;64114;48.726;9.370;2022-11-18T06:37:36;0.67;;;0.50;;
1076;SDS011;64114;48.726;9.370;2022-11-18T06:40:06;0.73;;;0.70;;
1076;SDS011;64114;48.726;9.370;2022-11-18T06:42:35;0.97;;;0.67;;
1076;SDS011;64114;48.726;9.370;2022-11-18T06:45:21;1.53;;;0.80;;
1076;SDS011;64114;48.726;9.370;2022-11-18T06:47:50;1.40;;;0.90;;
1076;SDS011;64114;48.726;9.370;2022-11-18T06:50:17;1.37;;;0.70;;
1076;SDS011;64114;48.726;9.370;2022-11-18T06:52:46;1.70;;;1.20;;
1076;SDS011;64114;48.726;9.370;2022-11-18T06:55:15;1.30;;;1.10;;
1076;SDS011;64114;48.726;9.370;2022-11-18T06:57:43;3.17;;;1.53;;
1076;SDS011;64114;48.726;9.370;2022-11-18T07:00:12;2.17;;;1.97;;
1076;SDS011;64114;48.726;9.370;2022-11-18T07:02:41;3.47;;;2.23;;
1076;SDS011;64114;48.726;9.370;2022-11-18T07:05:09;1.50;;;1.20;;
1076;SDS011;64114;48.726;9.370;2022-11-18T07:07:37;2.20;;;1.40;;
1076;SDS011;64114;48.726;9.370;2022-11-18T07:10:07;1.20;;;0.80;;
1076;SDS011;64114;48.726;9.370;2022-11-18T07:12:37;0.70;;;0.70;;
1076;SDS011;64114;48.726;9.370;2022-11-18T07:15:08;0.80;;;0.70;;
1076;SDS011;64114;48.726;9.370;2022-11-18T07:17:36;1.23;;;0.50;;
1076;SDS011;64114;48.726;9.370;2022-11-18T07:20:05;1.43;;;1.00;;
1076;SDS011;64114;48.726;9.370;2022-11-18T07:22:34;2.00;;;0.60;;
1076;SDS011;64114;48.726;9.370;2022-11-18T07:25:02;0.90;;;0.70;;
1076;SDS011;64114;48.726;9.370;2022-11-18T07:27:30;0.63;;;0.60;;
1076;SDS011;64114;48.726;9.370;2022-11-18T07:29:59;0.50;;;0.50;;
1076;SDS011;64114;48.726;9.370;2022-11-18T07:32:27;0.60;;;0.60;;
1076;SDS011;64114;48.726;9.370;2022-11-18T07:34:55;1.10;;;1.10;;
1076;SDS011;64114;48.726;9.370;2022-11-18T07:37:24;0.80;;;0.80;;
1076;SDS011;64114;48.726;9.370;2022-11-18T07:39:52;0.80;;;0.70;;
1076;SDS011;64114;48.726;9.370;2022-11-18T07:42:20;1.93;;;0.53;;
1076;SDS011;64114;48.726;9.370;2022-11-18T07:44:48;1.80;;;0.80;;
1076;SDS011;64114;48.726;9.370;2022-11-18T07:47:17;2.43;;;0.90;;
1076;SDS011;64114;48.726;9.370;2022-11-18T07:49:45;1.83;;;0.73;;
1076;SDS011;64114;48.726;9.370;2022-11-18T07:52:15;1.10;;;0.77;;
1076;SDS011;64114;48.726;9.370;2022-11-18T07:54:43;0.60;;;0.50;;
1076;SDS011;64114;48.726;9.370;2022-11-18T07:57:11;0.80;;;0.70;;
1076;SDS011;64114;48.726;9.370;2022-11-18T07:59:39;0.80;;;0.70;;
1076;SDS011;64114;48.726;9.370;2022-11-18T08:02:09;1.80;;;1.00;;
1076;SDS011;64114;48.726;9.370;2022-11-18T08:04:39;1.30;;;1.00;;
1076;SDS011;64114;48.726;9.370;2022-11-18T08:07:08;1.00;;;0.73;;
1076;SDS011;64114;48.726;9.370;2022-11-18T08:09:35;1.60;;;1.50;;
1076;SDS011;64114;48.726;9.370;2022-11-18T08:12:06;1.17;;;0.70;;
1076;SDS011;64114;48.726;9.370;2022-11-18T08:14:34;1.03;;;0.80;;
1076;SDS011;64114;48.726;9.370;2022-11-18T08:17:02;0.70;;;0.60;;
1076;SDS011;64114;48.726;9.370;2022-11-18T08:19:32;2.00;;;0.80;;
1076;SDS011;64114;48.726;9.370;2022-11-18T08:22:02;1.70;;;1.60;;
1076;SDS011;64114;48.726;9.370;2022-11-18T08:24:30;2.27;;;1.30;;
1076;SDS011;64114;48.726;9.370;2022-11-18T08:26:58;2.93;;;0.97;;
1076;SDS011;64114;48.726;9.370;2022-11-18T08:29:26;1.40;;;1.30;;
1076;SDS011;64114;48.726;9.370;2022-11-18T08:31:54;0.83;;;0.77;;
1076;SDS011;64114;48.726;9.370;2022-11-18T08:34:23;1.07;;;1.00;;
1076;SDS011;64114;48.726;9.370;2022-11-18T08:36:50;3.37;;;1.30;;
1076;SDS011;64114;48.726;9.370;2022-11-18T08:39:19;1.30;;;1.13;;
1076;SDS011;64114;48.726;9.370;2022-11-18T08:41:47;1.33;;;1.10;;
1076;SDS011;64114;48.726;9.370;2022-11-18T08:44:15;1.67;;;1.47;;
1076;SDS011;64114;48.726;9.370;2022-11-18T08:46:44;1.53;;;1.07;;
1076;SDS011;64114;48.726;9.370;2022-11-18T08:49:12;1.10;;;1.00;;
1076;SDS011;64114;48.726;9.370;2022-11-18T08:51:40;1.27;;;1.10;;
1076;SDS011;64114;48.726;9.370;2022-11-18T08:54:08;1.10;;;1.00;;
1076;SDS011;64114;48.726;9.370;2022-11-18T08:56:37;1.40;;;1.03;;
1076;SDS011;64114;48.726;9.370;2022-11-18T08:59:05;1.23;;;1.00;;
1076;SDS011;64114;48.726;9.370;2022-11-18T09:01:35;1.00;;;0.80;;
1076;SDS011;64114;48.726;9.370;2022-11-18T09:04:03;1.83;;;0.80;;
1076;SDS011;64114;48.726;9.370;2022-11-18T09:06:31;1.03;;;1.00;;
1076;SDS011;64114;48.726;9.370;2022-11-18T09:09:00;2.00;;;1.40;;
1076;SDS011;64114;48.726;9.370;2022-11-18T09:11:31;2.80;;;2.10;;
1076;SDS011;64114;48.726;9.370;2022-11-18T09:14:02;2.30;;;1.70;;
1076;SDS011;64114;48.726;9.370;2022-11-18T09:16:50;1.43;;;1.37;;
1076;SDS011;64114;48.726;9.370;2022-11-18T09:19:18;2.23;;;1.20;;
1076;SDS011;64114;48.726;9.370;2022-11-18T09:22:07;1.10;;;1.00;;
1076;SDS011;64114;48.726;9.370;2022-11-18T09:24:35;1.00;;;0.90;;
1076;SDS011;64114;48.726;9.370;2022-11-18T09:27:04;2.63;;;1.17;;
1076;SDS011;64114;48.726;9.370;2022-11-18T09:29:43;2.53;;;0.97;;
1076;SDS011;64114;48.726;9.370;2022-11-18T09:32:11;1.60;;;0.87;;
1076;SDS011;64114;48.726;9.370;2022-11-18T09:34:39;2.50;;;1.23;;
1076;SDS011;64114;48.726;9.370;2022-11-18T09:37:07;1.17;;;1.00;;
1076;SDS011;64114;48.726;9.370;2022-11-18T09:39:35;3.70;;;1.20;;
1076;SDS011;64114;48.726;9.370;2022-11-18T09:42:08;2.63;;;1.53;;
1076;SDS011;64114;48.726;9.370;2022-11-18T09:44:50;2.03;;;1.10;;
1076;SDS011;64114;48.726;9.370;2022-11-18T09:47:37;1.53;;;1.10;;
1076;SDS011;64114;48.726;9.370;2022-11-18T09:50:08;1.70;;;1.37;;
1076;SDS011;64114;48.726;9.370;2022-11-18T09:53:02;2.90;;;1.23;;
1076;SDS011;64114;48.726;9.370;2022-11-18T09:55:37;3.47;;;1.00;;
1076;SDS011;64114;48.726;9.370;2022-11-18T09:58:10;1.73;;;1.13;;
1076;SDS011;64114;48.726;9.370;2022-11-18T10:00:43;1.63;;;1.10;;
1076;SDS011;64114;48.726;9.370;2022-11-18T10:03:13;1.03;;;0.80;;
1076;SDS011;64114;48.726;9.370;2022-11-18T10:05:46;1.43;;;1.37;;
1076;SDS011;64114;48.726;9.370;2022-11-18T10:08:19;1.00;;;0.80;;
1076;SDS011;64114;48.726;9.370;2022-11-18T10:10:53;1.67;;;0.97;;
1076;SDS011;64114;48.726;9.370;2022-11-18T10:13:31;2.77;;;1.40;;
1076;SDS011;64114;48.726;9.370;2022-11-18T10:16:15;1.50;;;1.20;;
1076;SDS011;64114;48.726;9.370;2022-11-18T10:18:51;1.90;;;1.20;;
1076;SDS011;64114;48.726;9.370;2022-11-18T10:21:30;1.53;;;1.00;;
1076;SDS011;64114;48.726;9.370;2022-11-18T10:24:09;2.90;;;0.97;;
1076;SDS011;64114;48.726;9.370;2022-11-18T10:26:43;1.27;;;1.20;;
1076;SDS011;64114;48.726;9.370;2022-11-18T10:29:11;3.07;;;1.60;;
1076;SDS011;64114;48.726;9.370;2022-11-18T10:31:51;19.50;;;9.20;;
1076;SDS011;64114;48.726;9.370;2022-11-18T10:34:27;27.20;;;11.40;;
1076;SDS011;64114;48.726;9.370;2022-11-18T10:36:57;25.73;;;13.13;;
1076;SDS011;64114;48.726;9.370;2022-11-18T10:39:27;15.17;;;6.67;;
1076;SDS011;64114;48.726;9.370;2022-11-18T10:41:56;10.63;;;5.13;;
1076;SDS011;64114;48.726;9.370;2022-11-18T10:44:32;4.23;;;2.33;;
1076;SDS011;64114;48.726;9.370;2022-11-18T10:47:20;3.37;;;1.60;;
1076;SDS011;64114;48.726;9.370;2022-11-18T10:49:51;2.20;;;1.33;;
1076;SDS011;64114;48.726;9.370;2022-11-18T10:52:19;1.70;;;1.00;;
1076;SDS011;64114;48.726;9.370;2022-11-18T10:55:04;1.40;;;1.30;;
1076;SDS011;64114;48.726;9.370;2022-11-18T10:57:46;1.30;;;1.20;;
1076;SDS011;64114;48.726;9.370;2022-11-18T11:00:34;2.33;;;1.63;;
1076;SDS011;64114;48.726;9.370;2022-11-18T11:03:18;4.67;;;1.70;;
1076;SDS011;64114;48.726;9.370;2022-11-18T11:08:47;3.37;;;2.37;;
1076;SDS011;64114;48.726;9.370;2022-11-18T11:11:23;3.23;;;1.83;;
1076;SDS011;64114;48.726;9.370;2022-11-18T11:13:55;1.77;;;1.20;;
1076;SDS011;64114;48.726;9.370;2022-11-18T11:16:28;5.43;;;1.70;;
1076;SDS011;64114;48.726;9.370;2022-11-18T11:18:59;1.90;;;1.60;;
1076;SDS011;64114;48.726;9.370;2022-11-18T11:21:30;3.07;;;1.70;;
1076;SDS011;64114;48.726;9.370;2022-11-18T11:23:58;4.33;;;2.00;;
1076;SDS011;64114;48.726;9.370;2022-11-18T11:26:28;2.37;;;1.40;;
1076;SDS011;64114;48.726;9.370;2022-11-18T11:29:29;2.57;;;1.77;;
1076;SDS011;64114;48.726;9.370;2022-11-18T11:32:06;1.20;;;1.20;;
1076;SDS011;64114;48.726;9.370;2022-11-18T11:34:45;1.27;;;1.17;;
1076;SDS011;64114;48.726;9.370;2022-11-18T11:37:24;1.40;;;1.30;;
1076;SDS011;64114;48.726;9.370;2022-11-18T11:40:02;2.53;;;1.43;;
1076;SDS011;64114;48.726;9.370;2022-11-18T11:42:42;3.17;;;1.53;;
1076;SDS011;64114;48.726;9.370;2022-11-18T11:45:23;0.90;;;0.90;;
1076;SDS011;64114;48.726;9.370;2022-11-18T11:47:59;1.93;;;1.10;;
1076;SDS011;64114;48.726;9.370;2022-11-18T11:50:42;1.20;;;1.10;;
1076;SDS011;64114;48.726;9.370;2022-11-18T11:53:47;1.60;;;1.37;;
1076;SDS011;64114;48.726;9.370;2022-11-18T11:56:30;2.00;;;1.60;;
1076;SDS011;64114;48.726;9.370;2022-11-18T11:59:10;2.07;;;1.30;;
1076;SDS011;64114;48.726;9.370;2022-11-18T12:01:49;1.57;;;1.50;;
1076;SDS011;64114;48.726;9.370;2022-11-18T12:04:30;2.17;;;1.57;;
1076;SDS011;64114;48.726;9.370;2022-11-18T12:07:06;1.00;;;1.00;;
1076;SDS011;64114;48.726;9.370;2022-11-18T12:09:53;2.50;;;1.30;;
1076;SDS011;64114;48.726;9.370;2022-11-18T12:12:33;1.33;;;1.30;;
1076;SDS011;64114;48.726;9.370;2022-11-18T12:15:15;2.00;;;1.47;;
1076;SDS011;64114;48.726;9.370;2022-11-18T12:17:53;3.80;;;1.67;;
1076;SDS011;64114;48.726;9.370;2022-11-18T12:23:21;1.33;;;1.30;;
1076;SDS011;64114;48.726;9.370;2022-11-18T12:25:52;1.17;;;1.00;;
1076;SDS011;64114;48.726;9.370;2022-11-18T12:28:24;1.47;;;1.00;;
1076;SDS011;64114;48.726;9.370;2022-11-18T12:34:17;1.03;;;0.70;;
1076;SDS011;64114;48.726;9.370;2022-11-18T12:36:56;2.60;;;1.00;;
1076;SDS011;64114;48.726;9.370;2022-11-18T12:39:55;1.50;;;1.03;;
1076;SDS011;64114;48.726;9.370;2022-11-18T12:42:32;1.00;;;0.83;;
1076;SDS011;64114;48.726;9.370;2022-11-18T12:45:43;0.90;;;0.73;;
1076;SDS011;64114;48.726;9.370;2022-11-18T12:48:26;1.20;;;1.10;;
1076;SDS011;64114;48.726;9.370;2022-11-18T12:56:59;3.43;;;1.80;;
1076;SDS011;64114;48.726;9.370;2022-11-18T12:59:30;1.70;;;1.60;;
1076;SDS011;64114;48.726;9.370;2022-11-18T13:02:01;3.27;;;1.80;;
1076;SDS011;64114;48.726;9.370;2022-11-18T13:04:31;1.73;;;1.30;;
1076;SDS011;64114;48.726;9.370;2022-11-18T13:06:59;4.13;;;2.77;;
1076;SDS011;64114;48.726;9.370;2022-11-18T13:09:29;2.67;;;2.17;;
1076;SDS011;64114;48.726;9.370;2022-11-18T13:12:02;1.80;;;1.70;;
1076;SDS011;64114;48.726;9.370;2022-11-18T13:14:35;1.70;;;1.40;;
1076;SDS011;64114;48.726;9.370;2022-11-18T13:17:25;3.97;;;2.20;;
1076;SDS011;64114;48.726;9.370;2022-11-18T13:20:22;13.10;;;5.83;;
1076;SDS011;64114;48.726;9.370;2022-11-18T13:22:54;3.17;;;2.10;;
1076;SDS011;64114;48.726;9.370;2022-11-18T13:25:40;2.93;;;2.00;;
1076;SDS011;64114;48.726;9.370;2022-11-18T13:28:16;5.77;;;3.03;;
1076;SDS011;64114;48.726;9.370;2022-11-18T13:30:52;6.67;;;3.43;;
1076;SDS011;64114;48.726;9.370;2022-11-18T13:33:26;7.40;;;3.90;;
1076;SDS011;64114;48.726;9.370;2022-11-18T13:35:54;2.60;;;1.70;;
1076;SDS011;64114;48.726;9.370;2022-11-18T13:38:24;2.00;;;1.53;;
1076;SDS011;64114;48.726;9.370;2022-11-18T13:40:54;8.23;;;2.00;;
1076;SDS011;64114;48.726;9.370;2022-11-18T13:43:39;2.40;;;1.80;;
1076;SDS011;64114;48.726;9.370;2022-11-18T13:46:09;2.17;;;1.53;;
1076;SDS011;64114;48.726;9.370;2022-11-18T13:48:44;2.43;;;1.27;;
1076;SDS011;64114;48.726;9.370;2022-11-18T13:51:16;2.20;;;1.90;;
1076;SDS011;64114;48.726;9.370;2022-11-18T13:53:45;2.80;;;1.97;;
1076;SDS011;64114;48.726;9.370;2022-11-18T13:56:15;3.67;;;1.40;;
1076;SDS011;64114;48.726;9.370;2022-11-18T13:58:51;2.40;;;1.43;;
1076;SDS011;64114;48.726;9.370;2022-11-18T14:01:42;1.70;;;1.60;;
1076;SDS011;64114;48.726;9.370;2022-11-18T14:04:15;3.23;;;2.30;;
1076;SDS011;64114;48.726;9.370;2022-11-18T14:06:45;2.87;;;1.60;;
1076;SDS011;64114;48.726;9.370;2022-11-18T14:09:16;2.13;;;1.90;;
1076;SDS011;64114;48.726;9.370;2022-11-18T14:11:56;3.97;;;1.97;;
1076;SDS011;64114;48.726;9.370;2022-11-18T14:14:28;3.50;;;1.90;;
1076;SDS011;64114;48.726;9.370;2022-11-18T14:17:02;3.13;;;2.10;;
1076;SDS011;64114;48.726;9.370;2022-11-18T14:19:38;2.40;;;1.87;;
1076;SDS011;64114;48.726;9.370;2022-11-18T14:22:10;2.50;;;1.80;;
1076;SDS011;64114;48.726;9.370;2022-11-18T14:24:41;2.30;;;1.67;;
1076;SDS011;64114;48.726;9.370;2022-11-18T14:30:25;2.73;;;1.50;;
1076;SDS011;64114;48.726;9.370;2022-11-18T14:33:10;2.77;;;1.87;;
1076;SDS011;64114;48.726;9.370;2022-11-18T14:35:39;3.20;;;1.40;;
1076;SDS011;64114;48.726;9.370;2022-11-18T14:38:10;2.30;;;1.80;;
1076;SDS011;64114;48.726;9.370;2022-11-18T14:41:01;1.70;;;1.03;;
1076;SDS011;64114;48.726;9.370;2022-11-18T14:43:31;1.13;;;1.03;;
1076;SDS011;64114;48.726;9.370;2022-11-18T14:46:01;1.17;;;1.00;;
1076;SDS011;64114;48.726;9.370;2022-11-18T14:48:30;2.70;;;1.40;;
1076;SDS011;64114;48.726;9.370;2022-11-18T14:51:00;1.13;;;1.03;;
1076;SDS011;64114;48.726;9.370;2022-11-18T14:53:28;3.27;;;1.30;;
1076;SDS011;64114;48.726;9.370;2022-11-18T14:55:56;1.50;;;1.40;;
1076;SDS011;64114;48.726;9.370;2022-11-18T14:58:25;3.83;;;1.57;;
1076;SDS011;64114;48.726;9.370;2022-11-18T15:00:53;2.00;;;1.60;;
1076;SDS011;64114;48.726;9.370;2022-11-18T15:03:23;1.60;;;1.47;;
1076;SDS011;64114;48.726;9.370;2022-11-18T15:05:51;1.63;;;1.27;;
1076;SDS011;64114;48.726;9.370;2022-11-18T15:08:18;2.23;;;1.60;;
1076;SDS011;64114;48.726;9.370;2022-11-18T15:10:46;8.10;;;2.30;;
1076;SDS011;64114;48.726;9.370;2022-11-18T15:13:16;1.53;;;1.20;;
1076;SDS011;64114;48.726;9.370;2022-11-18T15:15:43;3.00;;;1.80;;
1076;SDS011;64114;48.726;9.370;2022-11-18T15:18:12;2.43;;;1.47;;
1076;SDS011;64114;48.726;9.370;2022-11-18T15:20:41;3.67;;;2.57;;
1076;SDS011;64114;48.726;9.370;2022-11-18T15:23:09;3.13;;;2.40;;
1076;SDS011;64114;48.726;9.370;2022-11-18T15:25:37;7.83;;;2.73;;
1076;SDS011;64114;48.726;9.370;2022-11-18T15:28:08;2.83;;;2.00;;
1076;SDS011;64114;48.726;9.370;2022-11-18T15:30:36;4.70;;;2.27;;
1076;SDS011;64114;48.726;9.370;2022-11-18T15:33:04;5.30;;;3.30;;
1076;SDS011;64114;48.726;9.370;2022-11-18T15:35:32;5.50;;;3.10;;
1076;SDS011;64114;48.726;9.370;2022-11-18T15:38:01;4.73;;;2.73;;
1076;SDS011;64114;48.726;9.370;2022-11-18T15:40:29;3.63;;;2.70;;
1076;SDS011;64114;48.726;9.370;2022-11-18T15:42:57;4.03;;;2.80;;
1076;SDS011;64114;48.726;9.370;2022-11-18T15:45:25;3.20;;;2.33;;
1076;SDS011;64114;48.726;9.370;2022-11-18T15:47:55;2.77;;;2.30;;
1076;SDS011;64114;48.726;9.370;2022-11-18T15:50:22;2.60;;;1.93;;
1076;SDS011;64114;48.726;9.370;2022-11-18T15:52:50;7.90;;;5.90;;